KMBG

Mobridge Municipal Airport

Mobridge, South Dakota, USA
METAR KMBG 171552Z AUTO 16003KT 10SM CLR 24/18 A3012 RMK AO2 SLP187 T02440183
Observed Flight Rules
Aug-17 @ 15:52 UTC (59 minutes ago) Visual Flight Rules
Wind Visibility Clouds
160° at 3 knots 10 miles
  • Clear skies
Temperatures Readings
Current 24°C / 75°F
Dewpoint 18°C / 64°F
Humidity 69%
Altimeter 30.12" Hg
Pressure 1018.7 hPa
Elevation 510
METAR KMBG 171552Z AUTO 16003KT 10SM CLR 24/18 A3012 RMK AO2 SLP187 T02440183
Observed Flight Rules
Aug-17 @ 15:52 UTC
(59 minutes ago)
VFR
Wind Visibility
160° at 3 knots 10 miles
Clouds
  • Clear skies
Temperature Dewpoint
24°C / 75°F 18°C / 64°F
Humidity Altimeter Pressure
69% 30.12" Hg 1018.7 hPa